.
WxDataArchive / Data Records for 2013-11-06
2013-11-05 November 2013 2013-11-07

Data Records for Wednesday, 06 November 2013

Time	Temp	Chill	HIndex	Humid	Dewpt	 Wind 	HiWind	WindDir	Rain 	Barom 
-----	----	-----	------	-----	-----	------	------	-------	-----	----- 
00:00	53.1	53.1	53.1	65	41.6	1	3	90	0.00	30.138 
00:05	53.1	53.1	53.1	65	41.6	1	3	90	0.00	30.138 
00:10	53.1	53.1	53.1	65	41.6	1	4	90	0.00	30.138 
00:15	53.1	53.1	53.1	65	41.6	1	3	112	0.00	30.124 
00:20	53.1	53.1	53.1	64	41.2	1	3	112	0.00	30.124 
00:25	53.1	53.1	53.1	64	41.2	1	5	135	0.00	30.124 
00:30	53.1	53.1	53.1	64	41.2	1	3	90	0.00	30.117 
00:35	53.1	53.1	53.1	63	40.8	1	3	90	0.00	30.117 
00:40	53.2	53.2	53.2	63	40.9	1	3	90	0.00	30.117 
00:45	53.2	53.2	53.2	62	40.5	1	5	90	0.00	30.109 
00:50	53.3	53.3	53.3	62	40.6	1	4	90	0.00	30.109 
00:55	53.3	53.3	53.3	62	40.6	0	2	90	0.00	30.109 
01:00	53.5	53.5	53.5	61	40.4	1	4	90	0.00	30.103 
01:05	53.6	53.6	53.6	60	40.1	1	4	90	0.00	30.103 
01:10	53.8	53.8	53.8	60	40.2	0	2	90	0.00	30.103 
01:15	53.8	53.8	53.8	59	39.8	1	7	112	0.00	30.097 
01:20	53.9	53.9	53.9	59	39.9	1	4	112	0.00	30.097 
01:25	54.1	54.1	54.1	58	39.7	1	4	112	0.00	30.097 
01:30	54.2	54.2	54.2	58	39.7	1	5	90	0.00	30.090 
01:35	54.2	54.2	54.2	58	39.7	1	5	90	0.00	30.090 
01:40	54.2	54.2	54.2	58	39.7	1	4	68	0.00	30.090 
01:45	54.2	54.2	54.2	58	39.7	1	3	90	0.00	30.080 
01:50	54.2	54.2	54.2	58	39.7	0	2	90	0.00	30.080 
01:55	54.2	54.2	54.2	58	39.7	1	5	135	0.00	30.080 
02:00	54.1	54.1	54.1	58	39.7	1	3	135	0.00	30.078 
02:05	54.2	54.2	54.2	58	39.7	1	3	202	0.00	30.078 
02:10	54.2	54.2	54.2	58	39.7	1	4	90	0.00	30.078 
02:15	54.2	54.2	54.2	58	39.7	1	6	112	0.00	30.063 
02:20	54.4	54.4	54.4	57	39.5	1	5	90	0.00	30.063 
02:25	54.5	54.5	54.5	57	39.6	1	7	90	0.00	30.063 
02:30	54.5	54.5	54.5	57	39.6	0	2	68	0.00	30.061 
02:35	54.5	54.5	54.5	58	40.0	1	4	90	0.00	30.061 
02:40	54.7	54.7	54.7	58	40.2	1	4	292	0.00	30.061 
02:45	54.7	54.7	54.7	58	40.2	1	3	22	0.00	30.057 
02:50	54.7	54.7	54.7	58	40.2	1	3	68	0.00	30.057 
02:55	54.7	54.7	54.7	58	40.2	0	2	68	0.00	30.057 
03:00	54.7	54.7	54.7	58	40.2	1	3	135	0.00	30.049 
03:05	54.8	54.8	54.8	58	40.3	1	3	112	0.00	30.049 
03:10	54.8	54.8	54.8	58	40.3	1	4	90	0.00	30.049 
03:15	55.0	55.0	55.0	58	40.5	2	10	45	0.00	30.041 
03:20	55.0	55.0	55.0	59	40.9	1	10	112	0.00	30.041 
03:25	55.1	55.1	55.1	59	41.0	1	3	158	0.00	30.041 
03:30	55.0	55.0	55.0	59	40.9	0	3	90	0.00	30.030 
03:35	55.1	55.1	55.1	59	41.0	1	3	90	0.00	30.030 
03:40	55.1	55.1	55.1	59	41.0	0	2	90	0.00	30.030 
03:45	55.3	55.3	55.3	60	41.7	0	1	90	0.00	30.029 
03:50	55.3	55.3	55.3	60	41.7	0	3	90	0.00	30.029 
03:55	55.4	55.4	55.4	60	41.7	1	4	68	0.00	30.029 
04:00	55.4	55.4	55.4	60	41.7	1	3	68	0.00	30.023 
04:05	55.6	55.6	55.6	60	41.9	1	3	90	0.00	30.023 
04:10	55.7	55.7	55.7	60	42.0	1	3	90	0.00	30.023 
04:15	55.9	55.9	55.9	61	42.6	0	2	90	0.00	30.013 
04:20	55.9	55.9	55.9	60	42.2	1	3	22	0.00	30.013 
04:25	56.0	56.0	56.0	62	43.2	0	1	22	0.00	30.013 
04:30	56.0	56.0	56.0	63	43.6	0	4	22	0.00	30.008 
04:35	55.9	55.9	55.9	64	43.9	1	3	90	0.00	30.008 
04:40	55.7	55.7	55.7	65	44.1	0	3	45	0.00	30.008 
04:45	55.6	55.6	55.6	66	44.4	0	2	270	0.00	30.005 
04:50	55.6	55.6	55.6	66	44.4	0	2	270	0.00	30.005 
04:55	55.4	55.4	55.4	66	44.2	0	3	292	0.00	30.005 
05:00	55.4	55.4	55.4	66	44.2	1	3	292	0.00	30.003 
05:05	55.6	55.6	55.6	66	44.4	0	3	68	0.00	30.003 
05:10	55.6	55.6	55.6	67	44.8	0	3	68	0.00	30.003 
05:15	55.7	55.7	55.7	67	44.9	0	2	68	0.00	30.000 
05:20	55.7	55.7	55.7	67	44.9	0	1	68	0.00	30.000 
05:25	55.7	55.7	55.7	69	45.7	0	1	68	0.00	30.000 
05:30	55.6	55.6	55.6	69	45.6	0	2	68	0.00	29.993 
05:35	55.6	55.6	55.6	69	45.6	0	2	68	0.00	29.993 
05:40	55.6	55.6	55.6	69	45.6	0	2	45	0.00	29.993 
05:45	55.6	55.6	55.6	70	46.0	0	1	45	0.00	29.989 
05:50	55.6	55.6	55.6	70	46.0	0	2	68	0.00	29.989 
05:55	55.6	55.6	55.6	70	46.0	0	1	68	0.00	29.989 
06:00	55.7	55.7	55.7	71	46.4	0	3	68	0.00	29.982 
06:05	55.7	55.7	55.7	71	46.4	0	2	68	0.00	29.982 
06:10	55.9	55.9	55.9	72	47.0	0	2	68	0.00	29.982 
06:15	56.0	56.0	56.0	72	47.1	1	5	45	0.00	29.974 
06:20	56.3	56.3	56.3	71	47.0	1	5	22	0.00	29.974 
06:25	56.6	56.6	56.6	71	47.3	1	2	45	0.00	29.974 
06:30	56.7	56.7	56.7	71	47.4	0	2	315	0.00	29.968 
06:35	56.7	56.7	56.7	71	47.4	0	2	315	0.00	29.968 
06:40	56.9	56.9	56.9	71	47.6	0	2	338	0.00	29.968 
06:45	56.9	56.9	56.9	72	48.0	0	3	338	0.00	29.965 
06:50	56.7	56.7	56.7	73	48.1	0	2	315	0.00	29.965 
06:55	56.7	56.7	56.7	73	48.1	1	3	45	0.00	29.965 
07:00	56.7	56.7	56.7	73	48.1	1	3	248	0.00	29.964 
07:05	56.7	56.7	56.7	73	48.1	1	6	338	0.00	29.964 
07:10	56.9	56.9	56.9	73	48.3	0	3	248	0.00	29.964 
07:15	57.0	57.0	57.0	73	48.4	0	3	270	0.00	29.964 
07:20	56.9	56.9	56.9	74	48.7	1	6	292	0.00	29.964 
07:25	56.6	56.6	56.6	76	49.1	1	3	292	0.00	29.964 
07:30	56.5	56.5	56.5	76	49.0	1	4	248	0.01	29.963 
07:35	56.2	56.2	56.2	77	49.1	1	6	270	0.00	29.963 
07:40	56.0	56.0	56.0	78	49.2	0	2	180	0.00	29.963 
07:45	55.6	55.6	55.6	79	49.2	0	4	248	0.00	29.968 
07:50	55.3	55.3	55.3	80	49.2	1	3	248	0.01	29.968 
07:55	55.1	55.1	55.1	81	49.4	0	4	248	0.00	29.968 
08:00	54.8	54.8	54.8	82	49.4	1	4	292	0.01	29.967 
08:05	54.5	54.5	54.5	83	49.4	0	2	292	0.01	29.967 
08:10	54.4	54.4	54.4	84	49.7	1	6	248	0.00	29.967 
08:15	54.2	54.2	54.2	84	49.5	1	4	248	0.00	29.966 
08:20	54.1	54.1	54.1	84	49.4	0	4	248	0.00	29.966 
08:25	54.1	54.1	54.1	84	49.4	0	3	248	0.00	29.966 
08:30	54.2	54.2	54.2	83	49.1	0	2	225	0.00	29.965 
08:35	54.4	54.4	54.4	83	49.3	0	2	248	0.00	29.965 
08:40	54.5	54.5	54.5	82	49.1	1	4	270	0.01	29.965 
08:45	54.5	54.5	54.5	82	49.1	1	3	248	0.00	29.962 
08:50	54.5	54.5	54.5	82	49.1	1	4	270	0.00	29.962 
08:55	54.5	54.5	54.5	83	49.4	1	3	248	0.00	29.962 
09:00	54.4	54.4	54.4	83	49.3	1	4	248	0.00	29.964 
09:05	54.4	54.4	54.4	83	49.3	1	4	248	0.01	29.964 
09:10	54.5	54.5	54.5	83	49.4	1	4	248	0.00	29.964 
09:15	54.4	54.4	54.4	84	49.7	1	4	270	0.00	29.960 
09:20	54.4	54.4	54.4	83	49.3	1	4	248	0.00	29.960 
09:25	54.4	54.4	54.4	83	49.3	1	5	270	0.00	29.960 
09:30	54.4	54.4	54.4	83	49.3	1	5	270	0.00	29.953 
09:35	54.5	54.5	54.5	83	49.4	1	4	270	0.00	29.953 
09:40	54.5	54.5	54.5	82	49.1	1	5	248	0.00	29.953 
09:45	54.7	54.7	54.7	82	49.3	1	6	270	0.00	29.948 
09:50	54.8	54.8	54.8	81	49.1	1	5	248	0.00	29.948 
09:55	54.8	54.8	54.8	81	49.1	0	3	248	0.00	29.948 
10:00	55.0	55.0	55.0	80	48.9	1	5	270	0.00	29.948 
10:05	55.0	55.0	55.0	81	49.3	0	3	270	0.01	29.948 
10:10	55.0	55.0	55.0	80	48.9	1	6	248	0.00	29.948 
10:15	55.0	55.0	55.0	80	48.9	1	4	248	0.00	29.949 
10:20	55.0	55.0	55.0	80	48.9	1	5	248	0.00	29.949 
10:25	54.8	54.8	54.8	80	48.7	1	4	270	0.00	29.949 
10:30	54.8	54.8	54.8	80	48.7	1	6	270	0.00	29.940 
10:35	55.0	55.0	55.0	80	48.9	2	7	248	0.00	29.940 
10:40	55.1	55.1	55.1	81	49.4	1	6	248	0.01	29.940 
10:45	55.0	55.0	55.0	82	49.6	1	9	248	0.00	29.941 
10:50	54.8	54.8	54.8	82	49.4	1	5	270	0.00	29.941 
10:55	54.7	54.7	54.7	82	49.3	1	5	248	0.00	29.941 
11:00	54.8	54.8	54.8	82	49.4	2	10	248	0.00	29.936 
11:05	55.0	55.0	55.0	81	49.3	1	6	248	0.00	29.936 
11:10	55.3	55.3	55.3	80	49.2	2	6	270	0.00	29.936 
11:15	55.4	55.4	55.4	79	49.0	1	7	248	0.00	29.933 
11:20	55.7	55.7	55.7	79	49.3	1	5	270	0.00	29.933 
11:25	56.0	56.0	56.0	78	49.2	2	9	248	0.00	29.933 
11:30	56.3	56.3	56.3	77	49.2	2	7	270	0.00	29.923 
11:35	56.6	56.6	56.6	77	49.5	2	9	248	0.00	29.923 
11:40	56.7	56.7	56.7	77	49.6	1	6	270	0.00	29.923 
11:45	56.9	56.9	56.9	77	49.8	2	7	248	0.00	29.916 
11:50	56.9	56.9	56.9	77	49.8	1	7	248	0.00	29.916 
11:55	56.6	56.6	56.6	78	49.8	1	6	270	0.00	29.916 
12:00	56.5	56.5	56.5	79	50.1	1	7	270	0.00	29.910 
12:05	56.2	56.2	56.2	80	50.1	1	5	248	0.00	29.910 
12:10	56.2	56.2	56.2	81	50.4	2	5	248	0.00	29.910 
12:15	56.0	56.0	56.0	80	49.9	2	8	270	0.00	29.902 
12:20	55.9	55.9	55.9	81	50.2	2	9	248	0.00	29.902 
12:25	55.7	55.7	55.7	81	50.0	2	6	270	0.00	29.902 
12:30	55.7	55.7	55.7	81	50.0	3	9	248	0.00	29.890 
12:35	55.9	55.9	55.9	81	50.2	1	6	248	0.00	29.890 
12:40	55.7	55.7	55.7	81	50.0	2	6	270	0.00	29.890 
12:45	55.6	55.6	55.6	82	50.2	2	5	248	0.00	29.887 
12:50	55.6	55.6	55.6	83	50.5	1	6	248	0.00	29.887 
12:55	55.4	55.4	55.4	83	50.3	2	6	270	0.00	29.887 
13:00	55.3	55.3	55.3	84	50.5	3	9	248	0.00	29.885 
13:05	55.1	55.1	55.1	84	50.4	2	9	248	0.00	29.885 
13:10	55.1	55.1	55.1	84	50.4	2	8	248	0.00	29.885 
13:15	55.0	55.0	55.0	85	50.6	2	7	248	0.00	29.878 
13:20	54.8	54.8	54.8	86	50.7	2	10	248	0.00	29.878 
13:25	54.8	54.8	54.8	86	50.7	2	11	248	0.00	29.878 
13:30	54.7	54.7	54.7	87	50.9	2	6	270	0.00	29.871 
13:35	54.7	54.7	54.7	87	50.9	3	10	248	0.00	29.871 
13:40	54.7	54.7	54.7	87	50.9	2	11	248	0.00	29.871 
13:45	54.7	54.7	54.7	88	51.2	2	5	248	0.00	29.867 
13:50	54.7	54.7	54.7	88	51.2	2	12	248	0.00	29.867 
13:55	54.7	54.7	54.7	88	51.2	2	9	270	0.00	29.867 
14:00	54.7	54.7	54.7	88	51.2	2	7	248	0.00	29.840 
14:05	54.8	54.8	54.8	88	51.3	1	4	248	0.00	29.840 
14:10	54.8	54.8	54.8	87	51.0	2	11	248	0.00	29.840 
14:15	55.0	55.0	55.0	88	51.5	2	6	68	0.00	29.816 
14:20	55.1	55.1	55.1	87	51.3	2	9	248	0.00	29.816 
14:25	55.3	55.3	55.3	87	51.5	3	10	248	0.00	29.816 
14:30	55.4	55.4	55.4	86	51.3	3	7	248	0.00	29.868 
14:35	55.6	55.6	55.6	86	51.5	3	11	248	0.00	29.868 
14:40	55.7	55.7	55.7	86	51.6	3	9	248	0.00	29.868 
14:45	55.7	55.7	55.7	85	51.3	3	11	248	0.00	29.883 
14:50	55.7	55.7	55.7	85	51.3	3	8	248	0.00	29.883 
14:55	55.9	55.9	55.9	85	51.5	3	9	248	0.00	29.883 
15:00	55.9	55.9	55.9	85	51.5	3	10	270	0.00	29.885 
15:05	55.9	55.9	55.9	85	51.5	4	11	248	0.00	29.885 
15:10	55.9	55.9	55.9	85	51.5	3	8	248	0.00	29.885 
15:15	55.9	55.9	55.9	85	51.5	2	4	248	0.00	29.883 
15:20	55.9	55.9	55.9	85	51.5	2	7	248	0.00	29.883 
15:25	55.9	55.9	55.9	86	51.8	2	9	248	0.00	29.883 
15:30	55.9	55.9	55.9	85	51.5	2	6	270	0.00	29.890 
15:35	56.0	56.0	56.0	85	51.6	2	5	270	0.00	29.890 
15:40	56.0	56.0	56.0	85	51.6	1	7	248	0.00	29.890 
15:45	56.0	56.0	56.0	85	51.6	1	5	270	0.00	29.881 
15:50	56.0	56.0	56.0	85	51.6	2	5	248	0.00	29.881 
15:55	56.2	56.2	56.2	85	51.7	2	6	248	0.00	29.881 
16:00	56.2	56.2	56.2	84	51.4	1	6	248	0.00	29.876 
16:05	56.2	56.2	56.2	84	51.4	2	6	248	0.00	29.876 
16:10	56.2	56.2	56.2	84	51.4	2	6	248	0.00	29.876 
16:15	56.2	56.2	56.2	84	51.4	3	9	248	0.00	29.886 
16:20	56.2	56.2	56.2	84	51.4	1	5	248	0.00	29.886 
16:25	56.0	56.0	56.0	85	51.6	1	6	248	0.00	29.886 
16:30	56.0	56.0	56.0	85	51.6	1	5	248	0.00	29.876 
16:35	55.9	55.9	55.9	86	51.8	1	4	248	0.00	29.876 
16:40	55.7	55.7	55.7	87	51.9	1	4	248	0.00	29.876 
16:45	55.6	55.6	55.6	88	52.1	1	7	248	0.00	29.886 
16:50	55.4	55.4	55.4	88	51.9	1	6	225	0.00	29.886 
16:55	55.3	55.3	55.3	88	51.8	1	4	248	0.00	29.886 
17:00	55.3	55.3	55.3	88	51.8	1	5	248	0.00	29.876 
17:05	55.3	55.3	55.3	88	51.8	1	5	248	0.00	29.876 
17:10	55.3	55.3	55.3	88	51.8	2	6	248	0.00	29.876 
17:15	55.3	55.3	55.3	88	51.8	3	10	248	0.00	29.888 
17:20	55.3	55.3	55.3	88	51.8	2	7	248	0.00	29.888 
17:25	55.3	55.3	55.3	88	51.8	1	5	270	0.00	29.888 
17:30	55.3	55.3	55.3	89	52.1	1	4	248	0.00	29.887 
17:35	55.1	55.1	55.1	89	51.9	2	7	248	0.00	29.887 
17:40	55.1	55.1	55.1	89	51.9	2	9	270	0.00	29.887 
17:45	55.1	55.1	55.1	89	51.9	3	10	248	0.00	29.896 
17:50	55.1	55.1	55.1	90	52.2	1	5	270	0.00	29.896 
17:55	55.0	55.0	55.0	90	52.1	1	4	248	0.00	29.896 
18:00	54.8	54.8	54.8	90	51.9	2	8	248	0.00	29.889 
18:05	54.8	54.8	54.8	91	52.2	2	6	270	0.01	29.889 
18:10	54.8	54.8	54.8	91	52.2	2	7	248	0.00	29.889 
18:15	54.5	54.5	54.5	91	51.9	3	6	270	0.00	29.900 
18:20	54.2	54.2	54.2	91	51.6	3	10	248	0.00	29.900 
18:25	53.2	53.2	53.2	90	50.3	5	10	270	0.00	29.900 
18:30	52.5	52.5	52.5	90	49.7	4	11	270	0.00	29.918 
18:35	52.2	52.2	52.2	90	49.4	2	5	270	0.00	29.918 
18:40	51.9	51.9	51.9	90	49.1	3	7	270	0.00	29.918 
18:45	51.6	51.6	51.6	90	48.8	3	7	270	0.00	29.928 
18:50	51.3	51.3	51.3	90	48.5	3	7	270	0.00	29.928 
18:55	50.4	50.4	50.4	89	47.3	5	9	270	0.00	29.928 
19:00	49.8	48.6	49.8	89	46.7	4	6	270	0.00	29.953 
19:05	49.4	49.4	49.4	90	46.6	3	6	270	0.00	29.953 
19:10	48.9	48.9	48.9	90	46.1	3	5	270	0.00	29.953 
19:15	47.9	46.4	47.9	89	44.8	4	9	315	0.00	29.958 
19:20	47.0	45.4	47.0	89	43.9	4	7	292	0.00	29.958 
19:25	46.5	46.5	46.5	89	43.4	3	6	315	0.01	29.958 
19:30	46.2	46.2	46.2	90	43.4	3	6	315	0.02	29.972 
19:35	46.0	46.0	46.0	91	43.5	3	6	315	0.00	29.972 
19:40	45.7	43.9	45.7	91	43.2	4	9	292	0.00	29.972 
19:45	45.2	45.2	45.2	91	42.7	3	8	292	0.01	29.976 
19:50	44.9	43.0	44.9	91	42.4	4	6	315	0.01	29.976 
19:55	44.6	44.6	44.6	91	42.1	3	7	315	0.00	29.976 
20:00	44.5	44.5	44.5	92	42.3	3	7	315	0.01	29.984 
20:05	44.3	44.3	44.3	92	42.1	2	5	270	0.00	29.984 
20:10	44.3	44.3	44.3	92	42.1	2	5	315	0.00	29.984 
20:15	44.2	44.2	44.2	92	42.0	2	5	292	0.00	29.975 
20:20	44.1	44.1	44.1	92	41.9	2	6	292	0.00	29.975 
20:25	43.9	43.9	43.9	92	41.7	3	6	292	0.00	29.975 
20:30	43.8	43.8	43.8	92	41.6	2	5	270	0.00	30.001 
20:35	43.8	43.8	43.8	92	41.6	2	5	292	0.00	30.001 
20:40	43.6	43.6	43.6	92	41.4	3	6	292	0.00	30.001 
20:45	43.6	43.6	43.6	92	41.4	3	9	270	0.00	30.012 
20:50	43.6	43.6	43.6	91	41.1	3	6	292	0.00	30.012 
20:55	43.5	43.5	43.5	91	41.0	1	3	292	0.00	30.012 
21:00	43.5	43.5	43.5	91	41.0	2	5	315	0.00	29.981 
21:05	43.5	43.5	43.5	91	41.0	3	9	315	0.00	29.981 
21:10	43.5	43.5	43.5	91	41.0	2	5	315	0.00	29.981 
21:15	43.5	43.5	43.5	91	41.0	2	6	315	0.00	30.007 
21:20	43.5	43.5	43.5	90	40.8	3	6	270	0.00	30.007 
21:25	43.5	43.5	43.5	90	40.8	2	6	315	0.00	30.007 
21:30	43.5	43.5	43.5	90	40.8	2	5	315	0.00	30.010 
21:35	43.3	43.3	43.3	89	40.3	1	5	315	0.00	30.010 
21:40	43.3	43.3	43.3	89	40.3	0	3	338	0.00	30.010 
21:45	43.3	43.3	43.3	89	40.3	2	6	248	0.00	30.021 
21:50	43.3	43.3	43.3	89	40.3	1	3	315	0.00	30.021 
21:55	43.2	43.2	43.2	89	40.2	2	4	315	0.00	30.021 
22:00	43.2	43.2	43.2	88	39.9	2	5	315	0.00	30.024 
22:05	43.2	43.2	43.2	88	39.9	2	5	315	0.00	30.024 
22:10	43.2	43.2	43.2	88	39.9	1	5	270	0.00	30.024 
22:15	43.2	43.2	43.2	88	39.9	1	3	292	0.00	30.033 
22:20	43.2	43.2	43.2	88	39.9	2	5	292	0.00	30.033 
22:25	43.1	43.1	43.1	88	39.8	1	5	338	0.00	30.033 
22:30	43.1	43.1	43.1	88	39.8	1	4	338	0.00	30.034 
22:35	43.1	43.1	43.1	88	39.8	0	4	315	0.00	30.034 
22:40	43.1	43.1	43.1	88	39.8	2	5	315	0.00	30.034 
22:45	43.1	43.1	43.1	88	39.8	1	3	315	0.00	30.045 
22:50	43.1	43.1	43.1	88	39.8	1	6	292	0.00	30.045 
22:55	43.1	43.1	43.1	88	39.8	1	4	292	0.00	30.045 
23:00	43.1	43.1	43.1	88	39.8	1	4	315	0.00	30.042 
23:05	43.1	43.1	43.1	88	39.8	1	5	315	0.00	30.042 
23:10	43.1	43.1	43.1	87	39.5	2	5	270	0.00	30.042 
23:15	43.1	43.1	43.1	87	39.5	1	4	292	0.00	30.038 
23:20	43.1	43.1	43.1	87	39.5	1	5	292	0.00	30.038 
23:25	42.9	42.9	42.9	87	39.3	2	5	292	0.00	30.038 
23:30	42.9	42.9	42.9	87	39.3	2	4	292	0.00	30.038 
23:35	42.9	42.9	42.9	86	39.0	1	3	292	0.00	30.038 
23:40	42.8	42.8	42.8	86	38.9	2	6	292	0.00	30.038 
23:45	42.8	42.8	42.8	85	38.6	2	5	292	0.00	30.024 
23:50	42.8	42.8	42.8	85	38.6	2	4	315	0.00	30.024 
23:55	42.8	42.8	42.8	84	38.3	0	2	270	0.00	30.024 

CoCoRaHS
IN-AL-39
A2 Web Hosting
Creative Commons License
GoDaddy
search engine by freefind advanced

loaded 2018-11-17 12:44:19 • last modified 2010-11-18 10:43:29
Privacy PolicyDisclaimer
• wx.awcolley.com is powered by PmWiki v.2002016 •
• all content (unless otherwise noted) © 2018 A W Colley